createdAt,value
2023-05-27T00:01:32.608Z,80.11
2023-05-27T00:04:35.938Z,80.06
2023-05-27T00:07:38.813Z,80.47
2023-05-27T00:10:41.970Z,80.79
2023-05-27T00:13:45.068Z,80.76
2023-05-27T00:16:48.237Z,81.79
2023-05-27T00:19:52.922Z,81.50
2023-05-27T00:22:57.823Z,82.50
2023-05-27T00:26:00.580Z,83.03
2023-05-27T00:29:03.646Z,83.86
2023-05-27T00:32:06.712Z,83.78
2023-05-27T00:35:10.668Z,83.83
2023-05-27T00:38:13.524Z,83.62
2023-05-27T00:41:16.719Z,83.05
2023-05-27T00:44:19.797Z,84.23
2023-05-27T00:47:23.511Z,84.33
2023-05-27T00:50:27.521Z,84.48
2023-05-27T00:53:38.804Z,84.96
2023-05-27T00:56:42.583Z,84.71
2023-05-27T00:59:46.697Z,85.05
2023-05-27T01:02:50.380Z,84.82
2023-05-27T01:06:01.758Z,84.60
2023-05-27T01:09:28.996Z,85.39
2023-05-27T01:13:01.500Z,86.51
2023-05-27T01:16:14.832Z,86.56
2023-05-27T01:19:48.817Z,85.92
2023-05-27T01:22:53.798Z,86.86
2023-05-27T01:25:56.945Z,86.56
2023-05-27T01:29:00.068Z,86.28
2023-05-27T01:32:07.453Z,86.20
2023-05-27T01:35:19.354Z,86.15
2023-05-27T01:38:26.323Z,86.72
2023-05-27T01:41:29.797Z,87.25
2023-05-27T01:44:34.373Z,86.74
2023-05-27T01:47:38.536Z,86.78
2023-05-27T01:50:41.613Z,86.49
2023-05-27T01:53:44.775Z,88.87
2023-05-27T01:56:47.898Z,89.76
2023-05-27T01:59:50.702Z,89.95
2023-05-27T02:02:54.182Z,90.36
2023-05-27T02:05:57.655Z,89.53
2023-05-27T02:09:00.581Z,88.19
2023-05-27T02:12:04.134Z,87.58
2023-05-27T02:15:08.788Z,88.12
2023-05-27T02:18:14.274Z,88.62
2023-05-27T02:21:17.679Z,88.88
2023-05-27T02:24:20.773Z,87.97
2023-05-27T02:27:25.134Z,86.93
2023-05-27T02:30:28.459Z,87.00
2023-05-27T02:33:32.261Z,87.30
2023-05-27T02:36:36.103Z,86.94
2023-05-27T02:39:40.161Z,87.05
2023-05-27T02:42:43.404Z,87.08
2023-05-27T02:45:47.168Z,88.14
2023-05-27T02:48:50.534Z,88.65
2023-05-27T02:51:54.229Z,88.29
2023-05-27T02:54:57.829Z,87.64
2023-05-27T02:58:00.781Z,87.25
2023-05-27T03:01:04.059Z,86.64
2023-05-27T03:04:07.023Z,87.08
2023-05-27T03:07:11.032Z,88.07
2023-05-27T03:10:13.802Z,88.79
2023-05-27T03:13:16.902Z,89.22
2023-05-27T03:16:20.994Z,89.71
2023-05-27T03:19:24.240Z,90.38
2023-05-27T03:22:27.071Z,90.72
2023-05-27T03:25:30.326Z,90.40
2023-05-27T03:28:34.407Z,90.74
2023-05-27T03:31:37.937Z,91.43
2023-05-27T03:34:40.965Z,91.74
2023-05-27T03:37:44.762Z,91.73
2023-05-27T03:40:47.528Z,91.54
2023-05-27T03:43:50.897Z,91.94
2023-05-27T03:46:54.182Z,91.96
2023-05-27T03:49:57.356Z,92.01
2023-05-27T03:53:00.023Z,91.40
2023-05-27T03:56:04.056Z,91.88
2023-05-27T03:59:10.002Z,92.26
2023-05-27T04:02:13.678Z,91.85
2023-05-27T04:05:18.151Z,91.53
2023-05-27T04:08:23.659Z,91.19
2023-05-27T04:11:28.787Z,91.34
2023-05-27T04:14:32.216Z,90.98
2023-05-27T04:17:36.772Z,90.70
2023-05-27T04:20:41.778Z,90.84
2023-05-27T04:23:45.587Z,89.63
2023-05-27T04:26:49.035Z,89.55
2023-05-27T04:29:52.450Z,89.18
2023-05-27T04:32:56.011Z,88.77
2023-05-27T04:35:59.168Z,88.15
2023-05-27T04:39:03.542Z,87.72
2023-05-27T04:42:07.188Z,87.25
2023-05-27T04:45:15.628Z,86.58
2023-05-27T04:48:21.225Z,86.62
2023-05-27T04:51:24.213Z,86.28
2023-05-27T04:54:28.234Z,86.79
2023-05-27T04:57:31.238Z,87.12
2023-05-27T05:00:50.890Z,86.07
2023-05-27T05:04:04.916Z,85.65
2023-05-27T05:07:08.746Z,85.27
2023-05-27T05:10:12.759Z,86.01
2023-05-27T05:13:17.444Z,85.98
2023-05-27T05:16:20.240Z,86.46
2023-05-27T05:19:23.388Z,85.93
2023-05-27T05:22:27.483Z,85.22
2023-05-27T05:25:31.693Z,85.28
2023-05-27T05:28:35.674Z,85.80
2023-05-27T05:31:39.128Z,85.09
2023-05-27T05:34:43.337Z,84.86
2023-05-27T05:37:47.140Z,83.92
2023-05-27T05:40:53.663Z,84.50
2023-05-27T05:43:58.383Z,84.37
2023-05-27T05:47:01.663Z,84.52
2023-05-27T05:50:05.222Z,83.57
2023-05-27T05:53:08.679Z,83.55
2023-05-27T05:56:12.002Z,82.42
2023-05-27T05:59:14.911Z,80.93
2023-05-27T06:02:18.184Z,80.18
2023-05-27T06:05:23.457Z,80.45
2023-05-27T06:08:26.398Z,79.24
2023-05-27T06:11:31.734Z,79.46
2023-05-27T06:14:35.001Z,79.11
2023-05-27T06:17:38.449Z,78.59
2023-05-27T06:20:41.517Z,77.55
2023-05-27T06:23:44.986Z,76.27
2023-05-27T06:26:51.039Z,75.11
2023-05-27T06:29:54.182Z,74.91
2023-05-27T06:32:57.734Z,73.52
2023-05-27T06:36:01.457Z,72.85
2023-05-27T06:39:05.154Z,70.74
2023-05-27T06:42:09.323Z,67.56
2023-05-27T06:45:13.604Z,68.39
2023-05-27T06:48:17.210Z,65.88
2023-05-27T06:51:20.034Z,65.22
2023-05-27T06:54:23.522Z,65.67
2023-05-27T06:57:27.090Z,64.70
2023-05-27T07:00:31.277Z,66.08
2023-05-27T07:03:35.627Z,66.35
2023-05-27T07:06:39.451Z,64.96
2023-05-27T07:09:42.561Z,66.25
2023-05-27T07:12:46.020Z,65.91
2023-05-27T07:15:52.481Z,66.69
2023-05-27T07:18:55.737Z,65.50
2023-05-27T07:21:58.771Z,66.60
2023-05-27T07:25:02.534Z,67.41
2023-05-27T07:28:05.949Z,66.37
2023-05-27T07:31:10.150Z,65.11
2023-05-27T07:34:13.555Z,64.71
2023-05-27T07:37:16.728Z,64.23
2023-05-27T07:40:19.530Z,63.36
2023-05-27T07:43:22.820Z,62.67
2023-05-27T07:46:32.075Z,63.54
2023-05-27T07:49:35.307Z,63.23
2023-05-27T07:52:38.564Z,63.43
2023-05-27T07:55:46.130Z,60.99
2023-05-27T07:58:49.324Z,62.22
2023-05-27T08:01:52.890Z,60.66
2023-05-27T08:04:56.883Z,61.16
2023-05-27T08:08:00.410Z,60.86
2023-05-27T08:11:04.454Z,60.16
2023-05-27T08:14:14.258Z,59.86
2023-05-27T08:17:18.007Z,60.42
2023-05-27T08:20:21.530Z,59.45
2023-05-27T08:23:26.538Z,57.54
2023-05-27T08:26:29.775Z,56.08
2023-05-27T08:29:34.883Z,54.20
2023-05-27T08:32:37.793Z,52.22
2023-05-27T08:35:40.976Z,54.02
2023-05-27T08:38:44.031Z,51.49
2023-05-27T08:41:47.657Z,49.92
2023-05-27T08:44:51.523Z,46.90
2023-05-27T08:47:55.224Z,48.70
2023-05-27T08:50:59.859Z,48.17
2023-05-27T08:54:03.214Z,47.93
2023-05-27T08:57:08.901Z,45.81
2023-05-27T09:00:13.400Z,45.54
2023-05-27T09:03:17.927Z,48.50
2023-05-27T09:06:21.879Z,46.96
2023-05-27T09:09:24.648Z,45.97
2023-05-27T09:12:28.238Z,46.28
2023-05-27T09:15:33.379Z,46.63
2023-05-27T09:18:37.373Z,45.46
2023-05-27T09:21:40.201Z,43.98
2023-05-27T09:24:43.658Z,43.01
2023-05-27T09:27:46.864Z,43.57
2023-05-27T09:31:10.026Z,42.51
2023-05-27T09:34:16.626Z,41.12
2023-05-27T09:37:22.208Z,40.74
2023-05-27T09:40:27.015Z,39.51
2023-05-27T09:43:31.166Z,42.24
2023-05-27T09:46:34.868Z,44.34
2023-05-27T09:49:39.408Z,45.06
2023-05-27T09:52:44.484Z,43.76
2023-05-27T09:55:54.838Z,43.17
2023-05-27T09:58:59.253Z,43.44
2023-05-27T10:02:05.543Z,43.36
2023-05-27T10:05:09.801Z,42.03
2023-05-27T10:08:25.196Z,43.15
2023-05-27T10:11:33.498Z,40.37
2023-05-27T10:14:36.762Z,38.55
2023-05-27T10:17:49.698Z,37.93
2023-05-27T10:20:53.068Z,39.40
2023-05-27T10:24:03.157Z,37.60
2023-05-27T10:27:07.239Z,37.10
2023-05-27T10:30:10.532Z,37.75
2023-05-27T10:33:14.377Z,38.25
2023-05-27T10:36:23.043Z,36.57
2023-05-27T10:39:27.517Z,37.40
2023-05-27T10:42:32.152Z,38.45
2023-05-27T10:45:35.657Z,37.41
2023-05-27T10:48:41.170Z,37.58
2023-05-27T10:51:45.446Z,37.93
2023-05-27T10:54:49.813Z,36.36
2023-05-27T10:57:52.948Z,37.61
2023-05-27T11:00:59.958Z,37.43
2023-05-27T11:04:02.761Z,36.09
2023-05-27T11:07:06.121Z,37.06
2023-05-27T11:10:10.167Z,36.25
2023-05-27T11:13:13.354Z,35.16
2023-05-27T11:16:17.446Z,36.58
2023-05-27T11:19:22.318Z,35.98
2023-05-27T11:22:25.098Z,35.43
2023-05-27T11:25:28.350Z,34.03
2023-05-27T11:28:31.493Z,33.63
2023-05-27T11:31:34.653Z,35.46
2023-05-27T11:34:38.136Z,34.31
2023-05-27T11:37:41.396Z,33.65
2023-05-27T11:40:44.090Z,34.25
2023-05-27T11:43:51.733Z,35.12
2023-05-27T11:47:03.503Z,33.99
2023-05-27T11:50:07.690Z,34.47
2023-05-27T11:53:10.437Z,34.21
2023-05-27T11:56:14.524Z,33.50
2023-05-27T11:59:17.583Z,33.37
2023-05-27T12:02:22.865Z,33.45
2023-05-27T12:08:35.986Z,33.93
2023-05-27T12:11:39.870Z,33.40
2023-05-27T12:14:42.900Z,34.70
2023-05-27T12:17:46.128Z,34.28
2023-05-27T12:20:49.015Z,34.16
2023-05-27T12:23:52.539Z,34.97
2023-05-27T12:26:55.794Z,34.17
2023-05-27T12:29:58.845Z,31.87
2023-05-27T12:33:02.616Z,34.51
2023-05-27T12:36:08.912Z,32.90
2023-05-27T12:39:11.885Z,34.81
2023-05-27T12:42:16.749Z,33.42
2023-05-27T12:45:23.294Z,33.94
2023-05-27T12:48:26.589Z,33.75
2023-05-27T12:51:29.787Z,31.46
2023-05-27T12:54:33.140Z,32.72
2023-05-27T12:57:35.959Z,33.86
2023-05-27T13:00:39.266Z,33.00
2023-05-27T13:03:42.492Z,35.18
2023-05-27T13:06:45.667Z,33.77
2023-05-27T13:09:49.449Z,32.83
2023-05-27T13:12:53.339Z,32.71
2023-05-27T13:15:56.163Z,32.95
2023-05-27T13:18:59.275Z,32.42
2023-05-27T13:22:02.758Z,33.38
2023-05-27T13:25:06.991Z,33.29
2023-05-27T13:28:09.847Z,33.11
2023-05-27T13:31:12.921Z,33.00
2023-05-27T13:34:19.021Z,33.43
2023-05-27T13:37:22.314Z,33.25
2023-05-27T13:40:25.095Z,34.29
2023-05-27T13:43:28.545Z,34.93
2023-05-27T13:46:31.382Z,34.51
2023-05-27T13:49:34.695Z,34.82
2023-05-27T13:52:37.791Z,34.67
2023-05-27T13:55:40.905Z,34.87
2023-05-27T13:58:43.692Z,34.85
2023-05-27T14:01:47.028Z,35.25
2023-05-27T14:04:50.443Z,35.13
2023-05-27T14:07:53.561Z,34.95
2023-05-27T14:10:56.625Z,35.07
2023-05-27T14:14:00.426Z,34.96
2023-05-27T14:17:03.668Z,36.06
2023-05-27T14:20:12.296Z,35.95
2023-05-27T14:23:17.653Z,36.56
2023-05-27T14:26:20.425Z,37.15
2023-05-27T14:29:23.536Z,37.50
2023-05-27T14:32:26.309Z,36.99
2023-05-27T14:35:29.891Z,36.56
2023-05-27T14:38:32.689Z,37.04
2023-05-27T14:41:36.088Z,37.04
2023-05-27T14:44:39.645Z,36.86
2023-05-27T14:47:42.733Z,37.14
2023-05-27T14:50:46.318Z,37.46
2023-05-27T14:53:49.620Z,37.62
2023-05-27T14:56:52.621Z,37.67
2023-05-27T14:59:55.718Z,37.52
2023-05-27T15:02:58.524Z,36.77
2023-05-27T15:06:01.841Z,37.45
2023-05-27T15:09:04.698Z,36.92
2023-05-27T15:12:08.100Z,37.82
2023-05-27T15:15:16.234Z,37.81
2023-05-27T15:18:19.358Z,37.61
2023-05-27T15:21:22.676Z,37.78
2023-05-27T15:24:25.766Z,37.34
2023-05-27T15:27:28.540Z,37.76
2023-05-27T15:30:32.783Z,38.03
2023-05-27T15:33:35.662Z,37.49
2023-05-27T15:36:39.090Z,37.05
2023-05-27T15:39:41.985Z,37.03
2023-05-27T15:42:45.422Z,35.97
2023-05-27T15:46:02.880Z,36.49
2023-05-27T15:49:06.966Z,36.69
2023-05-27T15:52:12.219Z,36.21
2023-05-27T15:55:15.556Z,36.31
2023-05-27T15:58:18.482Z,36.93
2023-05-27T16:01:21.705Z,36.73
2023-05-27T16:04:24.910Z,36.80
2023-05-27T16:07:27.727Z,37.31
2023-05-27T16:10:31.168Z,37.28
2023-05-27T16:13:33.985Z,37.47
2023-05-27T16:16:37.318Z,37.67
2023-05-27T16:19:40.085Z,38.37
2023-05-27T16:22:43.333Z,38.50
2023-05-27T16:25:47.432Z,38.75
2023-05-27T16:28:50.888Z,38.89
2023-05-27T16:31:53.862Z,38.52
2023-05-27T16:34:57.157Z,38.75
2023-05-27T16:37:59.883Z,38.76
2023-05-27T16:41:03.052Z,39.11
2023-05-27T16:44:06.737Z,39.21
2023-05-27T16:47:10.331Z,39.41
2023-05-27T16:50:13.149Z,39.43
2023-05-27T16:53:16.480Z,39.44
2023-05-27T16:56:19.398Z,39.82
2023-05-27T16:59:22.531Z,39.56
2023-05-27T17:02:25.664Z,39.99
2023-05-27T17:05:28.953Z,40.20
2023-05-27T17:08:31.889Z,41.37
2023-05-27T17:11:36.685Z,42.59
2023-05-27T17:14:43.579Z,43.37
2023-05-27T17:17:49.614Z,43.82
2023-05-27T17:20:55.096Z,44.07
2023-05-27T17:23:59.467Z,44.82
2023-05-27T17:27:02.301Z,45.33
2023-05-27T17:30:06.020Z,46.43
2023-05-27T17:33:08.850Z,46.85
2023-05-27T17:36:12.300Z,48.30
2023-05-27T17:39:15.092Z,49.40
2023-05-27T17:42:18.253Z,50.29
2023-05-27T17:45:20.913Z,50.54
2023-05-27T17:48:24.113Z,52.19
2023-05-27T17:51:28.125Z,51.73
2023-05-27T17:54:31.636Z,52.11
2023-05-27T17:57:34.421Z,52.61
2023-05-27T18:00:38.127Z,54.37
2023-05-27T18:07:01.646Z,54.00
2023-05-27T18:10:05.924Z,54.21
2023-05-27T18:13:08.715Z,54.93
2023-05-27T18:16:12.951Z,55.03
2023-05-27T18:19:16.489Z,56.22
2023-05-27T18:22:20.240Z,56.30
2023-05-27T18:25:23.524Z,56.83
2023-05-27T18:28:26.527Z,57.39
2023-05-27T18:31:29.228Z,58.23
2023-05-27T18:34:32.351Z,58.26
2023-05-27T18:37:35.631Z,58.08
2023-05-27T18:40:40.541Z,58.56
2023-05-27T18:43:43.305Z,59.24
2023-05-27T18:46:46.433Z,58.84
2023-05-27T18:49:49.449Z,59.27
2023-05-27T18:52:52.664Z,59.35
2023-05-27T18:55:55.461Z,60.58
2023-05-27T18:58:59.063Z,60.74
2023-05-27T19:02:02.305Z,60.94
2023-05-27T19:05:05.885Z,60.46
2023-05-27T19:08:08.767Z,60.05
2023-05-27T19:11:12.811Z,61.40
2023-05-27T19:14:16.152Z,62.70
2023-05-27T19:17:19.134Z,62.29
2023-05-27T19:20:22.585Z,62.66
2023-05-27T19:23:25.859Z,63.31
2023-05-27T19:26:28.702Z,63.40
2023-05-27T19:29:31.764Z,63.38
2023-05-27T19:32:34.528Z,64.16
2023-05-27T19:35:37.961Z,64.05
2023-05-27T19:38:41.113Z,64.51
2023-05-27T19:41:44.177Z,65.20
2023-05-27T19:44:48.226Z,65.74
2023-05-27T19:47:52.471Z,64.92
2023-05-27T19:50:55.690Z,65.05
2023-05-27T19:53:58.938Z,66.63
2023-05-27T19:57:02.644Z,67.10
2023-05-27T20:00:08.815Z,67.10
2023-05-27T20:03:11.861Z,67.95
2023-05-27T20:06:15.210Z,68.81
2023-05-27T20:09:18.325Z,69.64
2023-05-27T20:12:56.563Z,70.56
2023-05-27T20:15:59.665Z,70.18
2023-05-27T20:19:02.497Z,69.64
2023-05-27T20:22:05.473Z,71.58
2023-05-27T20:25:08.821Z,71.47
2023-05-27T20:28:13.494Z,71.71
2023-05-27T20:31:16.616Z,71.92
2023-05-27T20:34:19.714Z,71.69
2023-05-27T20:37:22.517Z,71.87
2023-05-27T20:40:26.637Z,72.88
2023-05-27T20:43:31.973Z,73.87
2023-05-27T20:46:35.208Z,73.19
2023-05-27T20:49:37.953Z,74.64
2023-05-27T20:52:41.524Z,73.96
2023-05-27T20:55:44.533Z,73.93
2023-05-27T20:58:47.492Z,74.50
2023-05-27T21:01:50.802Z,74.20
2023-05-27T21:04:53.992Z,75.54
2023-05-27T21:07:57.045Z,75.72
2023-05-27T21:11:00.145Z,76.49
2023-05-27T21:14:03.302Z,76.38
2023-05-27T21:17:06.565Z,76.46
2023-05-27T21:20:09.880Z,78.41
2023-05-27T21:23:13.184Z,79.55
2023-05-27T21:26:16.684Z,79.01
2023-05-27T21:29:19.753Z,79.67
2023-05-27T21:32:24.590Z,83.02
2023-05-27T21:35:27.681Z,83.51
2023-05-27T21:38:34.573Z,82.06
2023-05-27T21:41:38.067Z,80.28
2023-05-27T21:44:41.262Z,79.36
2023-05-27T21:47:44.484Z,79.40
2023-05-27T21:50:47.404Z,79.25
2023-05-27T21:56:54.523Z,79.10
2023-05-27T21:59:58.560Z,78.74
2023-05-27T22:03:02.160Z,79.06
2023-05-27T22:06:06.240Z,79.18
2023-05-27T22:09:09.835Z,79.82
2023-05-27T22:12:14.474Z,79.56
2023-05-27T22:15:18.100Z,79.69
2023-05-27T22:18:21.173Z,80.13
2023-05-27T22:21:29.362Z,79.31
2023-05-27T22:24:34.372Z,80.60
2023-05-27T22:27:38.000Z,79.80
2023-05-27T22:30:41.468Z,81.69
2023-05-27T22:33:44.394Z,80.97
2023-05-27T22:36:48.007Z,80.29
2023-05-27T22:39:51.813Z,81.01
2023-05-27T22:42:55.764Z,80.55
2023-05-27T22:45:59.510Z,80.83
2023-05-27T22:49:03.161Z,80.25
2023-05-27T22:52:06.020Z,80.63
2023-05-27T22:55:09.615Z,80.19
2023-05-27T22:58:12.261Z,80.41
2023-05-27T23:01:15.570Z,80.84
2023-05-27T23:04:18.432Z,80.59
2023-05-27T23:07:21.521Z,80.32
2023-05-27T23:10:27.736Z,80.80
2023-05-27T23:13:30.884Z,80.72
2023-05-27T23:16:33.749Z,80.50
2023-05-27T23:19:36.869Z,80.67
2023-05-27T23:22:39.685Z,83.25
2023-05-27T23:25:42.872Z,82.34
2023-05-27T23:28:45.835Z,81.77
2023-05-27T23:31:49.160Z,82.87
2023-05-27T23:34:52.131Z,83.23
2023-05-27T23:37:55.307Z,83.06
2023-05-27T23:40:58.090Z,84.59
2023-05-27T23:44:01.269Z,83.24
2023-05-27T23:47:04.232Z,82.33
2023-05-27T23:50:09.126Z,83.46
2023-05-27T23:53:11.898Z,83.16
2023-05-27T23:56:15.256Z,83.57
2023-05-27T23:59:17.969Z,84.19
